KSPA/SPA METAR and TAF weather

Enter ICAO airport designator
Station Type Date Time Source
KSPA METAR 2019/08/24 21:55 UTC NOAA

KSPA 242155Z AUTO 05007KT 10SM OVC016 20/16 A3010 RMK AO2


Station Type Date Time Source
KSPA Decoded METAR 2019/08/24 21:55 UTC NOAA

Station name not available
Aug 24, 2019 - 05:55 PM EDT / 2019.08.24 2155 UTC
Wind: from the NE (050 degrees) at 8 MPH (7 KT):0
Visibility: 10 mile(s):0
Sky conditions: overcast
Temperature: 68 F (20 C)
Dew Point: 60 F (16 C)
Relative Humidity: 77%
Pressure (altimeter): 30.1 in. Hg (1019 hPa)
ob: KSPA 242155Z AUTO 05007KT 10SM OVC016 20/16 A3010 RMK AO2
cycle: 22

Station Type Date Time Source
KSPA TAF UTC NOAA

Error!

Example: see airport list